.
WxDataArchive / Data Records for 2006-06-27
2006-06-26 June 2006 2006-06-28

Data Records for Tuesday, 27 June 2006

Time	Temp	Chill	HIndex	Humid	Dewpt	 Wind 	HiWind	WindDir	Rain 	Barom 
-----	----	-----	------	-----	-----	------	------	-------	-----	----- 
00:00	69.1	69.1	69.1	69	58.5	0	1	315	0.00	29.853 
00:05	69.1	69.1	69.1	69	58.5	0	1	315	0.00	29.853 
00:10	69.1	69.1	69.1	67	57.7	0	1	315	0.00	29.853 
00:15	69.1	69.1	69.1	67	57.7	0	2	315	0.00	29.858 
00:20	68.9	68.9	68.9	67	57.5	0	2	315	0.00	29.858 
00:25	68.8	68.8	68.8	68	57.8	0	1	315	0.00	29.858 
00:30	68.4	68.4	68.4	68	57.4	0	1	315	0.00	29.857 
00:35	68.3	68.3	68.3	68	57.3	0	0	---	0.00	29.857 
00:40	67.9	67.9	67.9	69	57.3	0	1	315	0.00	29.857 
00:45	67.8	67.8	67.8	69	57.2	0	1	315	0.00	29.851 
00:50	67.6	67.6	67.6	70	57.5	0	0	---	0.00	29.851 
00:55	67.4	67.4	67.4	70	57.3	0	0	---	0.00	29.851 
01:00	67.3	67.3	67.3	71	57.6	0	1	315	0.00	29.851 
01:05	66.9	66.9	66.9	71	57.2	0	1	315	0.00	29.851 
01:10	66.8	66.8	66.8	72	57.5	0	1	315	0.00	29.851 
01:15	66.6	66.6	66.6	73	57.7	0	1	315	0.00	29.847 
01:20	66.4	66.4	66.4	74	57.9	0	0	---	0.00	29.847 
01:25	66.4	66.4	66.4	75	58.2	0	1	315	0.00	29.847 
01:30	66.3	66.3	66.3	75	58.1	1	2	315	0.00	29.849 
01:35	66.4	66.4	66.4	77	59.0	0	2	315	0.00	29.849 
01:40	66.4	66.4	66.4	78	59.3	0	2	315	0.00	29.849 
01:45	66.4	66.4	66.4	79	59.7	0	1	315	0.00	29.848 
01:50	66.4	66.4	66.4	80	60.0	0	1	315	0.00	29.848 
01:55	66.4	66.4	66.4	81	60.4	0	0	---	0.00	29.848 
02:00	66.4	66.4	66.4	81	60.4	0	0	---	0.00	29.848 
02:05	66.3	66.3	66.3	82	60.6	0	0	---	0.00	29.848 
02:10	66.3	66.3	66.3	82	60.6	0	1	315	0.00	29.848 
02:15	66.3	66.3	66.3	83	61.0	0	0	---	0.00	29.848 
02:20	66.3	66.3	66.3	83	61.0	0	1	315	0.00	29.848 
02:25	66.3	66.3	66.3	84	61.3	0	0	---	0.00	29.848 
02:30	66.3	66.3	66.3	84	61.3	0	0	---	0.00	29.835 
02:35	66.3	66.3	66.3	84	61.3	0	0	---	0.00	29.835 
02:40	66.3	66.3	66.3	85	61.6	0	1	315	0.00	29.835 
02:45	66.3	66.3	66.3	85	61.6	0	1	315	0.00	29.834 
02:50	66.3	66.3	66.3	85	61.6	0	1	315	0.00	29.834 
02:55	66.3	66.3	66.3	85	61.6	0	1	315	0.00	29.834 
03:00	66.1	66.1	66.1	85	61.5	0	1	315	0.00	29.835 
03:05	66.1	66.1	66.1	85	61.5	0	2	315	0.00	29.835 
03:10	66.1	66.1	66.1	85	61.5	0	1	315	0.00	29.835 
03:15	66.1	66.1	66.1	85	61.5	0	0	---	0.00	29.834 
03:20	66.1	66.1	66.1	85	61.5	0	1	315	0.00	29.834 
03:25	66.1	66.1	66.1	85	61.5	0	0	---	0.00	29.834 
03:30	66.1	66.1	66.1	85	61.5	0	1	315	0.00	29.840 
03:35	66.1	66.1	66.1	85	61.5	0	1	315	0.00	29.840 
03:40	66.0	66.0	66.0	85	61.4	1	4	248	0.00	29.840 
03:45	66.0	66.0	66.0	85	61.4	1	4	248	0.00	29.857 
03:50	66.0	66.0	66.0	84	61.0	1	3	248	0.00	29.857 
03:55	66.1	66.1	66.1	84	61.1	0	1	315	0.00	29.857 
04:00	66.1	66.1	66.1	84	61.1	0	1	338	0.00	29.847 
04:05	66.1	66.1	66.1	84	61.1	0	1	338	0.00	29.847 
04:10	66.1	66.1	66.1	84	61.1	0	0	---	0.00	29.847 
04:15	66.1	66.1	66.1	84	61.1	0	1	338	0.00	29.836 
04:20	66.1	66.1	66.1	84	61.1	0	2	338	0.00	29.836 
04:25	66.1	66.1	66.1	84	61.1	0	0	---	0.00	29.836 
04:30	66.0	66.0	66.0	84	61.0	0	0	---	0.00	29.832 
04:35	65.8	65.8	65.8	84	60.8	0	0	---	0.00	29.832 
04:40	65.6	65.6	65.6	84	60.6	0	0	---	0.00	29.832 
04:45	65.5	65.5	65.5	84	60.5	0	0	---	0.00	29.832 
04:50	65.3	65.3	65.3	84	60.3	0	0	---	0.00	29.832 
04:55	65.2	65.2	65.2	85	60.6	0	1	338	0.00	29.832 
05:00	64.8	64.8	64.8	86	60.5	0	0	---	0.00	29.832 
05:05	64.5	64.5	64.5	86	60.2	0	1	338	0.00	29.832 
05:10	64.2	64.2	64.2	87	60.2	0	2	338	0.00	29.832 
05:15	64.0	64.0	64.0	88	60.4	0	0	---	0.00	29.845 
05:20	64.0	64.0	64.0	88	60.4	0	1	338	0.00	29.845 
05:25	64.0	64.0	64.0	88	60.4	0	1	338	0.00	29.845 
05:30	64.2	64.2	64.2	88	60.6	0	1	338	0.00	29.846 
05:35	64.3	64.3	64.3	88	60.7	0	1	338	0.00	29.846 
05:40	64.3	64.3	64.3	88	60.7	0	1	338	0.00	29.846 
05:45	64.3	64.3	64.3	88	60.7	0	2	338	0.00	29.847 
05:50	64.3	64.3	64.3	88	60.7	0	2	338	0.00	29.847 
05:55	64.2	64.2	64.2	88	60.6	0	1	338	0.00	29.847 
06:00	64.0	64.0	64.0	88	60.4	0	1	338	0.00	29.848 
06:05	64.0	64.0	64.0	88	60.4	0	0	---	0.00	29.848 
06:10	63.9	63.9	63.9	88	60.3	0	1	338	0.00	29.848 
06:15	63.7	63.7	63.7	88	60.1	0	0	---	0.00	29.848 
06:20	63.4	63.4	63.4	88	59.8	0	0	---	0.00	29.848 
06:25	63.2	63.2	63.2	88	59.6	0	0	---	0.00	29.848 
06:30	63.1	63.1	63.1	89	59.8	0	0	---	0.00	29.856 
06:35	62.9	62.9	62.9	89	59.6	0	0	---	0.00	29.856 
06:40	62.7	62.7	62.7	90	59.7	0	0	---	0.00	29.856 
06:45	62.7	62.7	62.7	90	59.7	0	0	---	0.00	29.851 
06:50	62.7	62.7	62.7	91	60.0	0	0	---	0.00	29.851 
06:55	62.7	62.7	62.7	91	60.0	0	1	338	0.00	29.851 
07:00	62.9	62.9	62.9	91	60.2	0	0	---	0.00	29.855 
07:05	63.1	63.1	63.1	91	60.4	0	0	---	0.00	29.855 
07:10	63.2	63.2	63.2	91	60.5	0	0	---	0.00	29.855 
07:15	63.4	63.4	63.4	91	60.7	0	1	338	0.00	29.858 
07:20	63.5	63.5	63.5	90	60.5	0	1	338	0.00	29.858 
07:25	63.9	63.9	63.9	90	60.9	0	2	338	0.00	29.858 
07:30	64.2	64.2	64.2	89	60.9	1	2	338	0.00	29.865 
07:35	64.5	64.5	64.5	88	60.9	1	2	292	0.00	29.865 
07:40	65.0	65.0	65.0	88	61.4	1	3	292	0.00	29.865 
07:45	65.5	65.5	65.5	86	61.2	0	2	270	0.00	29.868 
07:50	65.6	65.6	65.6	85	61.0	1	2	292	0.00	29.868 
07:55	66.0	66.0	66.0	84	61.0	1	2	292	0.00	29.868 
08:00	66.1	66.1	66.1	84	61.1	1	2	292	0.00	29.876 
08:05	66.4	66.4	66.4	83	61.1	0	1	292	0.00	29.876 
08:10	66.9	66.9	66.9	82	61.2	0	1	292	0.00	29.876 
08:15	67.3	67.3	67.3	82	61.6	0	3	292	0.00	29.879 
08:20	67.8	67.8	67.8	82	62.1	0	2	292	0.00	29.879 
08:25	68.4	68.4	68.4	81	62.3	0	2	292	0.00	29.879 
08:30	68.9	68.9	68.9	79	62.1	0	2	292	0.00	29.878 
08:35	69.3	69.3	69.3	77	61.8	0	1	292	0.00	29.878 
08:40	69.8	69.8	69.8	78	62.6	0	1	292	0.00	29.878 
08:45	70.1	70.1	70.1	76	62.2	0	2	292	0.00	29.880 
08:50	70.3	70.3	70.3	76	62.4	0	2	292	0.00	29.880 
08:55	70.6	70.6	70.6	75	62.3	0	1	292	0.00	29.880 
09:00	70.9	70.9	70.9	74	62.2	0	2	270	0.00	29.885 
09:05	70.9	70.9	70.9	75	62.6	0	1	270	0.00	29.885 
09:10	71.1	71.1	71.1	75	62.8	0	1	270	0.00	29.885 
09:15	71.3	71.3	71.3	73	62.2	0	2	270	0.00	29.890 
09:20	71.3	71.3	71.3	75	63.0	0	2	270	0.00	29.890 
09:25	72.0	72.0	72.0	72	62.5	1	2	270	0.00	29.890 
09:30	72.1	72.1	72.1	71	62.2	1	2	270	0.00	29.892 
09:35	72.8	72.8	72.8	70	62.4	0	2	270	0.00	29.892 
09:40	73.0	73.0	73.0	69	62.2	1	3	270	0.00	29.892 
09:45	73.2	73.2	73.2	68	62.0	1	3	270	0.00	29.887 
09:50	73.5	73.5	73.5	67	61.9	1	3	270	0.00	29.887 
09:55	73.9	73.9	73.9	67	62.2	1	3	270	0.00	29.887 
10:00	74.0	74.0	74.0	67	62.3	1	2	270	0.00	29.884 
10:05	74.7	74.7	74.7	68	63.4	1	3	270	0.00	29.884 
10:10	75.1	75.1	77.1	65	62.5	1	3	270	0.00	29.884 
10:15	75.1	75.1	77.1	65	62.5	1	3	270	0.00	29.883 
10:20	75.4	75.4	77.5	62	61.5	1	3	248	0.00	29.883 
10:25	75.6	75.6	77.6	63	62.1	1	2	270	0.00	29.883 
10:30	76.0	76.0	77.9	63	62.5	1	3	270	0.00	29.885 
10:35	76.7	76.7	78.5	63	63.1	1	3	248	0.00	29.885 
10:40	77.0	77.0	78.8	61	62.5	1	2	270	0.00	29.885 
10:45	77.0	77.0	78.8	63	63.4	1	3	248	0.00	29.883 
10:50	76.8	76.8	78.6	61	62.3	1	4	248	0.00	29.883 
10:55	76.7	76.7	78.5	60	61.7	1	3	248	0.00	29.883 
11:00	77.4	77.4	79.2	62	63.3	1	3	270	0.00	29.886 
11:05	77.7	77.7	79.4	60	62.7	1	4	248	0.00	29.886 
11:10	77.7	77.7	79.4	60	62.7	1	3	248	0.00	29.886 
11:15	77.4	77.4	79.2	62	63.3	1	3	270	0.00	29.892 
11:20	77.9	77.9	79.6	60	62.9	1	3	248	0.00	29.892 
11:25	78.3	78.3	79.9	59	62.8	1	3	270	0.00	29.892 
11:30	78.5	78.5	80.0	58	62.5	1	3	270	0.00	29.892 
11:35	77.7	77.7	79.4	59	62.2	1	2	292	0.00	29.892 
11:40	77.7	77.7	79.4	62	63.6	0	3	315	0.00	29.892 
11:45	78.1	78.1	79.7	59	62.6	2	4	248	0.00	29.895 
11:50	78.1	78.1	79.7	59	62.6	1	3	248	0.00	29.895 
11:55	78.3	78.3	80.0	61	63.7	1	3	248	0.00	29.895 
12:00	78.3	78.3	80.0	60	63.2	1	4	248	0.00	29.897 
12:05	79.0	79.0	80.6	59	63.4	1	3	248	0.00	29.897 
12:10	79.9	79.9	81.1	54	61.7	2	3	112	0.00	29.897 
12:15	79.8	79.8	81.2	56	62.7	1	4	248	0.00	29.895 
12:20	80.1	80.1	81.4	55	62.4	1	3	248	0.00	29.895 
12:25	80.5	80.5	81.7	54	62.3	2	3	270	0.00	29.895 
12:30	81.1	81.1	82.5	55	63.4	1	3	112	0.00	29.896 
12:35	80.7	80.7	81.9	54	62.5	0	2	315	0.00	29.896 
12:40	80.1	80.1	81.4	55	62.4	1	3	248	0.00	29.896 
12:45	78.8	78.8	80.3	57	62.3	1	3	315	0.00	29.896 
12:50	77.9	77.9	79.5	58	61.9	1	2	315	0.00	29.896 
12:55	77.7	77.7	79.4	60	62.7	1	3	292	0.00	29.896 
13:00	77.6	77.6	79.3	61	63.1	1	3	292	0.00	29.898 
13:05	78.6	78.6	80.3	61	64.0	1	3	270	0.00	29.898 
13:10	79.4	79.4	80.8	56	62.3	1	4	315	0.00	29.898 
13:15	79.9	79.9	81.3	56	62.8	2	4	315	0.00	29.896 
13:20	80.5	80.5	81.7	54	62.3	2	4	270	0.00	29.896 
13:25	79.9	79.9	81.1	54	61.7	2	3	248	0.00	29.896 
13:30	78.5	78.5	80.0	58	62.5	1	4	338	0.00	29.900 
13:35	76.5	76.5	78.4	59	61.1	2	4	292	0.00	29.900 
13:40	75.1	75.1	77.4	61	60.7	1	4	292	0.00	29.900 
13:45	74.4	74.4	74.4	62	60.5	1	5	248	0.00	29.912 
13:50	74.0	74.0	74.0	64	61.0	1	2	315	0.00	29.912 
13:55	73.9	73.9	73.9	66	61.8	0	3	315	0.00	29.912 
14:00	73.9	73.9	73.9	66	61.8	0	3	270	0.00	29.908 
14:05	74.4	74.4	74.4	69	63.5	0	2	270	0.00	29.908 
14:10	75.8	75.8	77.5	69	64.9	1	2	315	0.00	29.908 
14:15	76.7	76.7	78.5	62	62.7	0	2	338	0.00	29.898 
14:20	76.5	76.5	78.3	63	62.9	1	3	22	0.00	29.898 
14:25	77.2	77.2	79.0	65	64.5	1	3	22	0.00	29.898 
14:30	78.1	78.1	79.9	62	64.0	1	3	315	0.00	29.894 
14:35	78.5	78.5	80.0	57	62.0	1	3	22	0.00	29.894 
14:40	78.1	78.1	79.7	59	62.6	1	4	315	0.00	29.894 
14:45	77.7	77.7	79.4	59	62.2	0	2	315	0.00	29.895 
14:50	77.6	77.6	79.3	59	62.1	0	1	315	0.00	29.895 
14:55	77.7	77.7	79.4	61	63.2	1	2	292	0.00	29.895 
15:00	76.5	76.5	78.4	58	60.6	3	10	315	0.00	29.906 
15:05	73.7	73.7	73.7	60	58.9	3	7	315	0.00	29.906 
15:10	72.3	72.3	72.3	65	59.9	3	6	315	0.00	29.906 
15:15	71.8	71.8	71.8	67	60.2	3	5	270	0.00	29.917 
15:20	72.1	72.1	72.1	65	59.7	1	4	270	0.00	29.917 
15:25	73.0	73.0	73.0	65	60.5	1	4	315	0.00	29.917 
15:30	74.4	74.4	74.4	64	61.4	1	3	338	0.00	29.912 
15:35	75.3	75.3	77.3	65	62.7	1	4	315	0.00	29.912 
15:40	76.1	76.1	78.1	59	60.7	2	4	270	0.00	29.912 
15:45	77.0	77.0	78.8	60	62.0	1	4	338	0.00	29.910 
15:50	77.9	77.9	79.6	60	62.9	1	3	338	0.00	29.910 
15:55	77.6	77.6	79.3	61	63.1	1	5	248	0.00	29.910 
16:00	77.0	77.0	78.8	60	62.0	0	2	338	0.00	29.906 
16:05	76.1	76.1	78.0	63	62.6	1	2	338	0.00	29.906 
16:10	76.0	76.0	77.7	68	64.7	0	2	292	0.00	29.906 
16:15	75.8	75.8	77.7	65	63.2	0	2	292	0.00	29.911 
16:20	75.3	75.3	77.2	67	63.6	0	3	0	0.00	29.911 
16:25	74.7	74.7	74.7	69	63.8	0	1	338	0.00	29.911 
16:30	74.6	74.6	74.6	69	63.7	0	1	338	0.00	29.906 
16:35	74.7	74.7	74.7	69	63.8	0	1	338	0.00	29.906 
16:40	74.9	74.9	74.9	66	62.8	1	2	225	0.00	29.906 
16:45	75.3	75.3	77.5	62	61.4	1	2	315	0.00	29.905 
16:50	75.4	75.4	77.6	61	61.0	0	1	315	0.00	29.905 
16:55	75.4	75.4	77.5	63	61.9	0	1	315	0.00	29.905 
17:00	75.4	75.4	77.5	62	61.5	1	4	292	0.00	29.900 
17:05	75.3	75.3	77.4	63	61.8	1	2	315	0.00	29.900 
17:10	75.1	75.1	77.4	60	60.2	2	3	248	0.00	29.900 
17:15	75.1	75.1	77.5	59	59.8	1	3	248	0.00	29.901 
17:20	74.9	74.9	74.9	60	60.1	0	2	315	0.00	29.901 
17:25	75.3	75.3	77.5	61	60.9	0	2	315	0.00	29.901 
17:30	75.6	75.6	77.7	62	61.6	1	3	315	0.00	29.898 
17:35	75.8	75.8	77.8	63	62.3	1	4	315	0.00	29.898 
17:40	75.8	75.8	77.9	60	60.9	1	3	248	0.00	29.898 
17:45	75.6	75.6	77.8	57	59.3	2	3	270	0.00	29.903 
17:50	75.4	75.4	77.7	57	59.1	1	4	315	0.00	29.903 
17:55	75.4	75.4	77.7	55	58.1	1	2	292	0.00	29.903 
18:00	75.3	75.3	77.7	52	56.4	1	3	292	0.00	29.901 
18:05	75.1	75.1	77.7	51	55.7	0	1	292	0.00	29.901 
18:10	75.1	75.1	77.7	51	55.7	0	1	292	0.00	29.901 
18:15	75.3	75.3	77.7	51	55.9	0	1	292	0.00	29.901 
18:20	75.4	75.4	77.8	53	57.1	0	1	292	0.00	29.901 
18:25	75.4	75.4	77.8	53	57.1	0	3	292	0.00	29.901 
18:30	75.4	75.4	77.8	54	57.6	1	3	270	0.00	29.899 
18:35	75.4	75.4	77.8	53	57.1	0	1	270	0.00	29.899 
18:40	75.4	75.4	77.7	56	58.6	0	1	270	0.00	29.899 
18:45	75.4	75.4	77.7	55	58.1	0	0	---	0.00	29.891 
18:50	75.4	75.4	77.7	56	58.6	0	1	270	0.00	29.891 
18:55	75.6	75.6	77.8	56	58.8	0	2	270	0.00	29.891 
19:00	76.0	76.0	78.1	54	58.1	1	3	270	0.00	29.893 
19:05	76.3	76.3	78.3	56	59.4	0	2	270	0.00	29.893 
19:10	76.5	76.5	78.4	55	59.1	0	2	270	0.00	29.893 
19:15	76.5	76.5	78.4	56	59.6	0	1	270	0.00	29.892 
19:20	76.3	76.3	78.3	55	58.9	1	2	270	0.00	29.892 
19:25	76.1	76.1	78.1	56	59.2	0	2	270	0.00	29.892 
19:30	76.0	76.0	78.1	57	59.6	0	1	270	0.00	29.895 
19:35	76.1	76.1	78.1	57	59.7	0	2	270	0.00	29.895 
19:40	76.3	76.3	78.3	57	59.9	0	1	270	0.00	29.895 
19:45	76.3	76.3	78.3	57	59.9	0	2	270	0.00	29.897 
19:50	76.5	76.5	78.4	57	60.1	0	0	---	0.00	29.897 
19:55	76.5	76.5	78.4	56	59.6	0	1	270	0.00	29.897 
20:00	76.7	76.7	78.5	56	59.8	0	1	270	0.00	29.897 
20:05	76.7	76.7	78.5	57	60.3	0	1	270	0.00	29.897 
20:10	76.7	76.7	78.5	56	59.8	0	1	270	0.00	29.897 
20:15	76.5	76.5	78.4	57	60.1	0	1	270	0.00	29.895 
20:20	76.3	76.3	78.2	58	60.4	0	1	270	0.00	29.895 
20:25	76.1	76.1	78.1	56	59.2	0	2	270	0.00	29.895 
20:30	76.0	76.0	78.1	57	59.6	0	1	270	0.00	29.903 
20:35	75.8	75.8	77.9	58	59.9	0	1	270	0.00	29.903 
20:40	75.6	75.6	77.8	58	59.8	0	1	270	0.00	29.903 
20:45	75.4	75.4	77.7	58	59.6	0	1	270	0.00	29.902 
20:50	75.1	75.1	77.5	58	59.3	0	1	270	0.00	29.902 
20:55	74.9	74.9	74.9	59	59.6	0	1	270	0.00	29.902 
21:00	74.6	74.6	74.6	59	59.3	0	0	---	0.00	29.909 
21:05	74.2	74.2	74.2	61	59.9	0	0	---	0.00	29.909 
21:10	73.9	73.9	73.9	62	60.0	0	0	---	0.00	29.909 
21:15	73.5	73.5	73.5	62	59.7	0	0	---	0.00	29.908 
21:20	73.2	73.2	73.2	63	59.8	0	0	---	0.00	29.908 
21:25	72.7	72.7	72.7	64	59.8	0	0	---	0.00	29.908 
21:30	72.3	72.3	72.3	65	59.9	0	0	---	0.00	29.911 
21:35	72.0	72.0	72.0	66	60.0	0	1	270	0.00	29.911 
21:40	71.6	71.6	71.6	67	60.0	0	0	---	0.00	29.911 
21:45	71.3	71.3	71.3	68	60.2	0	0	---	0.00	29.913 
21:50	70.9	70.9	70.9	69	60.2	0	0	---	0.00	29.913 
21:55	70.8	70.8	70.8	70	60.5	0	0	---	0.00	29.913 
22:00	70.4	70.4	70.4	71	60.5	0	0	---	0.00	29.922 
22:05	70.3	70.3	70.3	71	60.4	0	0	---	0.00	29.922 
22:10	69.9	69.9	69.9	71	60.1	0	0	---	0.00	29.922 
22:15	69.9	69.9	69.9	70	59.7	0	0	---	0.00	29.926 
22:20	69.9	69.9	69.9	69	59.3	0	1	270	0.00	29.926 
22:25	70.3	70.3	70.3	67	58.8	0	1	270	0.00	29.926 
22:30	70.4	70.4	70.4	66	58.5	0	0	---	0.00	29.934 
22:35	70.6	70.6	70.6	66	58.7	0	0	---	0.00	29.934 
22:40	70.8	70.8	70.8	66	58.9	0	0	---	0.00	29.934 
22:45	70.8	70.8	70.8	66	58.9	0	0	---	0.00	29.931 
22:50	70.8	70.8	70.8	66	58.9	0	0	---	0.00	29.931 
22:55	70.6	70.6	70.6	65	58.2	0	0	---	0.00	29.931 
23:00	70.6	70.6	70.6	66	58.7	0	0	---	0.00	29.935 
23:05	70.6	70.6	70.6	65	58.2	0	0	---	0.00	29.935 
23:10	70.4	70.4	70.4	65	58.1	0	0	---	0.00	29.935 
23:15	70.4	70.4	70.4	65	58.1	0	0	---	0.00	29.937 
23:20	70.3	70.3	70.3	66	58.4	0	0	---	0.00	29.937 
23:25	69.9	69.9	69.9	66	58.0	0	0	---	0.00	29.937 
23:30	69.8	69.8	69.8	67	58.3	0	0	---	0.00	29.936 
23:35	69.3	69.3	69.3	68	58.3	0	0	---	0.00	29.936 
23:40	68.9	68.9	68.9	69	58.3	0	0	---	0.00	29.936 
23:45	68.4	68.4	68.4	70	58.2	0	0	---	0.00	29.938 
23:50	67.9	67.9	67.9	71	58.1	0	0	---	0.00	29.938 
23:55	67.8	67.8	67.8	71	58.0	0	0	---	0.00	29.938 

CoCoRaHS
IN-AL-39
A2 Web Hosting
Creative Commons License
GoDaddy
Look for:

loaded 2017-10-17 09:17:15 • last modified 2010-11-18 10:43:29
Privacy PolicyDisclaimer
• wx.awcolley.com is powered by PmWiki v.2002016 •
• all content (unless otherwise noted) © 2017 A W Colley